sensor_id;sensor_type;location;lat;lon;timestamp;pressure;altitude;pressure_sealevel;temperature;humidity
76762;BME280;65705;51.032;13.790;2023-03-20T00:00:46;100386.38;;;11.00;71.56
76762;BME280;65705;51.032;13.790;2023-03-20T00:03:12;100388.94;;;10.92;72.28
76762;BME280;65705;51.032;13.790;2023-03-20T00:05:38;100390.63;;;10.93;72.68
76762;BME280;65705;51.032;13.790;2023-03-20T00:08:04;100394.59;;;10.97;72.35
76762;BME280;65705;51.032;13.790;2023-03-20T00:10:40;100390.72;;;11.09;71.20
76762;BME280;65705;51.032;13.790;2023-03-20T00:13:11;100391.69;;;11.08;71.16
76762;BME280;65705;51.032;13.790;2023-03-20T00:15:41;100402.00;;;11.01;71.51
76762;BME280;65705;51.032;13.790;2023-03-20T00:18:16;100407.41;;;11.00;71.78
76762;BME280;65705;51.032;13.790;2023-03-20T00:20:44;100411.81;;;10.99;71.21
76762;BME280;65705;51.032;13.790;2023-03-20T00:23:11;100408.53;;;10.97;71.63
76762;BME280;65705;51.032;13.790;2023-03-20T00:25:38;100408.38;;;10.99;71.44
76762;BME280;65705;51.032;13.790;2023-03-20T00:28:43;100406.41;;;11.01;71.29
76762;BME280;65705;51.032;13.790;2023-03-20T00:31:23;100402.63;;;10.95;71.56
76762;BME280;65705;51.032;13.790;2023-03-20T00:34:02;100403.25;;;10.97;71.51
76762;BME280;65705;51.032;13.790;2023-03-20T00:36:30;100403.84;;;11.09;71.05
76762;BME280;65705;51.032;13.790;2023-03-20T00:38:57;100398.41;;;11.02;71.43
76762;BME280;65705;51.032;13.790;2023-03-20T00:41:32;100404.94;;;10.98;71.47
76762;BME280;65705;51.032;13.790;2023-03-20T00:44:12;100405.38;;;10.94;71.50
76762;BME280;65705;51.032;13.790;2023-03-20T00:46:42;100398.34;;;10.94;71.72
76762;BME280;65705;51.032;13.790;2023-03-20T00:49:10;100402.97;;;11.00;71.53
76762;BME280;65705;51.032;13.790;2023-03-20T00:51:37;100400.00;;;10.95;71.64
76762;BME280;65705;51.032;13.790;2023-03-20T00:54:15;100397.38;;;10.95;71.70
76762;BME280;65705;51.032;13.790;2023-03-20T00:57:11;100397.66;;;10.92;71.83
76762;BME280;65705;51.032;13.790;2023-03-20T00:59:35;100401.72;;;10.87;71.94
76762;BME280;65705;51.032;13.790;2023-03-20T01:02:02;100401.88;;;10.85;71.85
76762;BME280;65705;51.032;13.790;2023-03-20T01:04:40;100397.31;;;10.87;71.39
76762;BME280;65705;51.032;13.790;2023-03-20T01:07:11;100396.69;;;10.93;71.68
76762;BME280;65705;51.032;13.790;2023-03-20T01:09:38;100396.97;;;10.90;71.78
76762;BME280;65705;51.032;13.790;2023-03-20T01:12:04;100392.72;;;10.89;71.22
76762;BME280;65705;51.032;13.790;2023-03-20T01:14:33;100400.25;;;10.84;71.67
76762;BME280;65705;51.032;13.790;2023-03-20T01:16:59;100397.78;;;10.83;71.64
76762;BME280;65705;51.032;13.790;2023-03-20T01:19:25;100394.59;;;10.79;71.59
76762;BME280;65705;51.032;13.790;2023-03-20T01:21:51;100386.13;;;10.85;72.07
76762;BME280;65705;51.032;13.790;2023-03-20T01:24:16;100390.53;;;10.85;72.07
76762;BME280;65705;51.032;13.790;2023-03-20T01:26:43;100394.31;;;10.82;71.92
76762;BME280;65705;51.032;13.790;2023-03-20T01:29:24;100387.41;;;10.81;72.14
76762;BME280;65705;51.032;13.790;2023-03-20T01:31:51;100387.72;;;10.78;72.49
76762;BME280;65705;51.032;13.790;2023-03-20T01:34:18;100388.84;;;10.76;72.41
76762;BME280;65705;51.032;13.790;2023-03-20T01:36:50;100388.63;;;10.69;72.93
76762;BME280;65705;51.032;13.790;2023-03-20T01:39:16;100385.72;;;10.54;73.98
76762;BME280;65705;51.032;13.790;2023-03-20T01:41:47;100386.88;;;10.52;73.89
76762;BME280;65705;51.032;13.790;2023-03-20T01:44:29;100393.91;;;10.51;73.98
76762;BME280;65705;51.032;13.790;2023-03-20T01:46:57;100391.28;;;10.51;74.02
76762;BME280;65705;51.032;13.790;2023-03-20T01:51:51;100383.09;;;10.54;74.32
76762;BME280;65705;51.032;13.790;2023-03-20T01:54:24;100390.28;;;10.52;73.91
76762;BME280;65705;51.032;13.790;2023-03-20T01:57:07;100388.81;;;10.50;73.68
76762;BME280;65705;51.032;13.790;2023-03-20T02:02:44;100391.50;;;10.40;73.98
76762;BME280;65705;51.032;13.790;2023-03-20T02:05:21;100385.59;;;10.38;74.36
76762;BME280;65705;51.032;13.790;2023-03-20T02:08:20;100387.09;;;10.41;74.02
76762;BME280;65705;51.032;13.790;2023-03-20T02:10:48;100385.16;;;10.43;73.73
76762;BME280;65705;51.032;13.790;2023-03-20T02:13:26;100382.81;;;10.40;74.09
76762;BME280;65705;51.032;13.790;2023-03-20T02:16:06;100392.03;;;10.44;73.61
76762;BME280;65705;51.032;13.790;2023-03-20T02:18:49;100385.66;;;10.46;74.27
76762;BME280;65705;51.032;13.790;2023-03-20T02:27:11;100383.94;;;10.37;74.12
76762;BME280;65705;51.032;13.790;2023-03-20T02:33:17;100389.19;;;10.37;74.34
76762;BME280;65705;51.032;13.790;2023-03-20T02:36:17;100388.56;;;10.43;74.38
76762;BME280;65705;51.032;13.790;2023-03-20T02:39:03;100386.03;;;10.51;74.35
76762;BME280;65705;51.032;13.790;2023-03-20T02:47:12;100389.41;;;10.44;74.38
76762;BME280;65705;51.032;13.790;2023-03-20T02:49:55;100393.00;;;10.25;75.28
76762;BME280;65705;51.032;13.790;2023-03-20T02:52:34;100393.16;;;10.24;75.29
76762;BME280;65705;51.032;13.790;2023-03-20T02:55:18;100391.22;;;10.26;74.87
76762;BME280;65705;51.032;13.790;2023-03-20T03:00:44;100390.31;;;10.17;75.48
76762;BME280;65705;51.032;13.790;2023-03-20T03:03:32;100399.44;;;10.13;75.02
76762;BME280;65705;51.032;13.790;2023-03-20T03:06:14;100394.44;;;10.20;74.38
76762;BME280;65705;51.032;13.790;2023-03-20T03:08:46;100391.81;;;10.20;74.32
76762;BME280;65705;51.032;13.790;2023-03-20T03:11:13;100388.53;;;10.18;74.27
76762;BME280;65705;51.032;13.790;2023-03-20T03:13:44;100387.69;;;10.17;74.95
76762;BME280;65705;51.032;13.790;2023-03-20T03:16:16;100393.94;;;10.07;75.18
76762;BME280;65705;51.032;13.790;2023-03-20T03:18:45;100393.28;;;10.05;75.88
76762;BME280;65705;51.032;13.790;2023-03-20T03:21:14;100387.19;;;10.04;75.75
76762;BME280;65705;51.032;13.790;2023-03-20T03:23:44;100390.63;;;10.14;75.29
76762;BME280;65705;51.032;13.790;2023-03-20T03:26:13;100389.13;;;10.02;75.74
76762;BME280;65705;51.032;13.790;2023-03-20T03:28:46;100382.78;;;10.05;75.41
76762;BME280;65705;51.032;13.790;2023-03-20T03:31:16;100388.72;;;10.07;75.42
76762;BME280;65705;51.032;13.790;2023-03-20T03:33:49;100379.59;;;10.11;75.43
76762;BME280;65705;51.032;13.790;2023-03-20T03:37:10;100382.34;;;10.09;75.20
76762;BME280;65705;51.032;13.790;2023-03-20T03:44:58;100385.41;;;10.05;75.43
76762;BME280;65705;51.032;13.790;2023-03-20T03:47:46;100384.41;;;10.06;75.66
76762;BME280;65705;51.032;13.790;2023-03-20T03:52:48;100380.31;;;10.03;75.32
76762;BME280;65705;51.032;13.790;2023-03-20T03:55:20;100388.44;;;10.10;75.57
76762;BME280;65705;51.032;13.790;2023-03-20T03:57:59;100381.94;;;10.04;75.49
76762;BME280;65705;51.032;13.790;2023-03-20T04:00:27;100384.03;;;10.01;75.46
76762;BME280;65705;51.032;13.790;2023-03-20T04:02:56;100385.41;;;10.05;75.39
76762;BME280;65705;51.032;13.790;2023-03-20T04:05:25;100389.59;;;9.98;75.97
76762;BME280;65705;51.032;13.790;2023-03-20T04:07:58;100396.78;;;9.96;75.61
76762;BME280;65705;51.032;13.790;2023-03-20T04:10:24;100398.72;;;9.94;76.03
76762;BME280;65705;51.032;13.790;2023-03-20T04:12:50;100393.47;;;9.94;75.95
76762;BME280;65705;51.032;13.790;2023-03-20T04:15:16;100392.06;;;9.99;75.68
76762;BME280;65705;51.032;13.790;2023-03-20T04:17:42;100394.25;;;10.04;75.49
76762;BME280;65705;51.032;13.790;2023-03-20T04:20:11;100388.03;;;10.05;75.53
76762;BME280;65705;51.032;13.790;2023-03-20T04:22:38;100390.13;;;10.01;75.38
76762;BME280;65705;51.032;13.790;2023-03-20T04:25:07;100397.84;;;10.03;75.75
76762;BME280;65705;51.032;13.790;2023-03-20T04:27:34;100394.78;;;10.07;75.86
76762;BME280;65705;51.032;13.790;2023-03-20T04:30:08;100390.63;;;10.14;75.50
76762;BME280;65705;51.032;13.790;2023-03-20T04:32:57;100395.47;;;10.09;75.81
76762;BME280;65705;51.032;13.790;2023-03-20T04:35:34;100392.97;;;10.08;76.05
76762;BME280;65705;51.032;13.790;2023-03-20T04:38:04;100399.44;;;10.13;76.10
76762;BME280;65705;51.032;13.790;2023-03-20T04:40:32;100405.03;;;10.01;75.88
76762;BME280;65705;51.032;13.790;2023-03-20T04:42:58;100405.84;;;10.01;75.56
76762;BME280;65705;51.032;13.790;2023-03-20T04:45:23;100399.78;;;10.01;75.51
76762;BME280;65705;51.032;13.790;2023-03-20T04:47:49;100403.81;;;9.95;75.48
76762;BME280;65705;51.032;13.790;2023-03-20T04:50:19;100400.09;;;9.98;75.66
76762;BME280;65705;51.032;13.790;2023-03-20T04:52:45;100399.41;;;9.96;75.72
76762;BME280;65705;51.032;13.790;2023-03-20T04:55:11;100403.97;;;9.94;75.42
76762;BME280;65705;51.032;13.790;2023-03-20T04:57:37;100404.94;;;9.93;76.10
76762;BME280;65705;51.032;13.790;2023-03-20T05:00:04;100406.28;;;9.97;75.81
76762;BME280;65705;51.032;13.790;2023-03-20T05:02:30;100417.06;;;9.94;75.68
76762;BME280;65705;51.032;13.790;2023-03-20T05:04:56;100410.47;;;9.90;75.92
76762;BME280;65705;51.032;13.790;2023-03-20T05:07:22;100410.25;;;9.83;76.18
76762;BME280;65705;51.032;13.790;2023-03-20T05:09:59;100407.31;;;9.86;75.58
76762;BME280;65705;51.032;13.790;2023-03-20T05:12:26;100416.88;;;9.78;75.91
76762;BME280;65705;51.032;13.790;2023-03-20T05:14:58;100423.72;;;9.88;75.85
76762;BME280;65705;51.032;13.790;2023-03-20T05:17:42;100418.94;;;9.84;75.90
76762;BME280;65705;51.032;13.790;2023-03-20T05:20:23;100427.19;;;9.89;76.05
76762;BME280;65705;51.032;13.790;2023-03-20T05:23:03;100432.47;;;9.79;76.28
76762;BME280;65705;51.032;13.790;2023-03-20T05:25:45;100433.69;;;9.85;75.74
76762;BME280;65705;51.032;13.790;2023-03-20T05:28:43;100435.72;;;9.91;75.83
76762;BME280;65705;51.032;13.790;2023-03-20T05:31:31;100442.19;;;9.96;75.21
76762;BME280;65705;51.032;13.790;2023-03-20T05:34:07;100439.25;;;10.09;75.20
76762;BME280;65705;51.032;13.790;2023-03-20T05:36:56;100445.28;;;10.09;75.38
76762;BME280;65705;51.032;13.790;2023-03-20T05:39:40;100445.97;;;10.11;75.39
76762;BME280;65705;51.032;13.790;2023-03-20T05:42:30;100447.50;;;10.14;75.76
76762;BME280;65705;51.032;13.790;2023-03-20T05:45:24;100450.94;;;10.14;75.24
76762;BME280;65705;51.032;13.790;2023-03-20T05:48:29;100459.50;;;10.16;75.05
76762;BME280;65705;51.032;13.790;2023-03-20T05:51:13;100455.16;;;10.25;74.75
76762;BME280;65705;51.032;13.790;2023-03-20T05:53:53;100461.16;;;10.35;74.62
76762;BME280;65705;51.032;13.790;2023-03-20T05:56:42;100470.53;;;10.37;74.62
76762;BME280;65705;51.032;13.790;2023-03-20T05:59:34;100464.81;;;10.42;75.04
76762;BME280;65705;51.032;13.790;2023-03-20T06:02:15;100463.72;;;10.44;74.96
76762;BME280;65705;51.032;13.790;2023-03-20T06:04:48;100461.47;;;10.49;75.35
76762;BME280;65705;51.032;13.790;2023-03-20T06:07:27;100466.72;;;10.49;74.80
76762;BME280;65705;51.032;13.790;2023-03-20T06:10:00;100466.81;;;10.57;74.27
76762;BME280;65705;51.032;13.790;2023-03-20T06:12:26;100459.72;;;10.58;74.54
76762;BME280;65705;51.032;13.790;2023-03-20T06:14:52;100460.09;;;10.63;73.97
76762;BME280;65705;51.032;13.790;2023-03-20T06:17:19;100461.31;;;10.69;74.08
76762;BME280;65705;51.032;13.790;2023-03-20T06:19:50;100461.38;;;10.77;73.89
76762;BME280;65705;51.032;13.790;2023-03-20T06:22:16;100470.16;;;10.85;73.62
76762;BME280;65705;51.032;13.790;2023-03-20T06:24:42;100475.75;;;10.90;72.95
76762;BME280;65705;51.032;13.790;2023-03-20T06:27:09;100470.94;;;11.03;73.27
76762;BME280;65705;51.032;13.790;2023-03-20T06:29:35;100472.91;;;11.01;73.66
76762;BME280;65705;51.032;13.790;2023-03-20T06:32:14;100470.63;;;11.06;72.98
76762;BME280;65705;51.032;13.790;2023-03-20T06:34:42;100469.50;;;11.09;72.85
76762;BME280;65705;51.032;13.790;2023-03-20T06:37:08;100473.34;;;11.14;72.70
76762;BME280;65705;51.032;13.790;2023-03-20T06:39:34;100475.19;;;11.22;72.09
76762;BME280;65705;51.032;13.790;2023-03-20T06:42:01;100475.72;;;11.25;72.35
76762;BME280;65705;51.032;13.790;2023-03-20T06:44:27;100481.53;;;11.37;71.05
76762;BME280;65705;51.032;13.790;2023-03-20T06:47:13;100479.91;;;11.44;70.81
76762;BME280;65705;51.032;13.790;2023-03-20T06:49:40;100475.56;;;11.52;70.05
76762;BME280;65705;51.032;13.790;2023-03-20T06:52:07;100478.06;;;11.62;69.83
76762;BME280;65705;51.032;13.790;2023-03-20T06:54:36;100473.41;;;11.74;69.32
76762;BME280;65705;51.032;13.790;2023-03-20T06:57:01;100474.94;;;11.92;68.72
76762;BME280;65705;51.032;13.790;2023-03-20T06:59:27;100480.53;;;11.89;68.90
76762;BME280;65705;51.032;13.790;2023-03-20T07:01:56;100472.47;;;11.91;68.81
76762;BME280;65705;51.032;13.790;2023-03-20T07:04:23;100469.69;;;11.92;68.67
76762;BME280;65705;51.032;13.790;2023-03-20T07:06:52;100471.34;;;12.01;68.88
76762;BME280;65705;51.032;13.790;2023-03-20T07:09:18;100470.91;;;12.06;68.13
76762;BME280;65705;51.032;13.790;2023-03-20T07:11:47;100463.34;;;12.03;68.60
76762;BME280;65705;51.032;13.790;2023-03-20T07:14:13;100475.16;;;12.07;68.49
76762;BME280;65705;51.032;13.790;2023-03-20T07:16:53;100482.44;;;12.13;68.39
76762;BME280;65705;51.032;13.790;2023-03-20T07:19:21;100478.00;;;12.13;68.65
76762;BME280;65705;51.032;13.790;2023-03-20T07:21:53;100476.53;;;12.19;68.24
76762;BME280;65705;51.032;13.790;2023-03-20T07:24:21;100477.22;;;12.29;68.31
76762;BME280;65705;51.032;13.790;2023-03-20T07:26:46;100472.94;;;12.28;68.07
76762;BME280;65705;51.032;13.790;2023-03-20T07:29:12;100487.09;;;12.35;68.25
76762;BME280;65705;51.032;13.790;2023-03-20T07:31:39;100480.38;;;12.48;67.55
76762;BME280;65705;51.032;13.790;2023-03-20T07:34:15;100476.44;;;12.52;67.05
76762;BME280;65705;51.032;13.790;2023-03-20T07:36:41;100486.50;;;12.65;66.73
76762;BME280;65705;51.032;13.790;2023-03-20T07:39:09;100493.91;;;12.69;66.79
76762;BME280;65705;51.032;13.790;2023-03-20T07:41:36;100495.41;;;12.72;66.88
76762;BME280;65705;51.032;13.790;2023-03-20T07:44:05;100496.72;;;12.76;66.81
76762;BME280;65705;51.032;13.790;2023-03-20T07:46:32;100496.06;;;12.90;66.42
76762;BME280;65705;51.032;13.790;2023-03-20T07:48:59;100491.47;;;12.92;66.63
76762;BME280;65705;51.032;13.790;2023-03-20T07:51:25;100496.94;;;13.07;66.17
76762;BME280;65705;51.032;13.790;2023-03-20T07:53:51;100496.72;;;13.00;66.22
76762;BME280;65705;51.032;13.790;2023-03-20T07:56:16;100497.41;;;13.02;65.99
76762;BME280;65705;51.032;13.790;2023-03-20T07:58:42;100502.69;;;13.02;66.36
76762;BME280;65705;51.032;13.790;2023-03-20T08:01:08;100499.03;;;12.95;66.65
76762;BME280;65705;51.032;13.790;2023-03-20T08:03:34;100498.38;;;12.85;66.88
76762;BME280;65705;51.032;13.790;2023-03-20T08:05:59;100498.72;;;12.90;67.24
76762;BME280;65705;51.032;13.790;2023-03-20T08:08:26;100516.47;;;12.96;66.86
76762;BME280;65705;51.032;13.790;2023-03-20T08:10:52;100506.44;;;12.92;67.59
76762;BME280;65705;51.032;13.790;2023-03-20T08:13:17;100503.00;;;12.83;67.28
76762;BME280;65705;51.032;13.790;2023-03-20T08:15:45;100509.06;;;12.84;67.22
76762;BME280;65705;51.032;13.790;2023-03-20T08:18:11;100504.97;;;12.81;67.28
76762;BME280;65705;51.032;13.790;2023-03-20T08:20:37;100505.44;;;12.77;67.26
76762;BME280;65705;51.032;13.790;2023-03-20T08:23:03;100507.75;;;12.80;67.46
76762;BME280;65705;51.032;13.790;2023-03-20T08:25:28;100505.25;;;12.78;67.38
76762;BME280;65705;51.032;13.790;2023-03-20T08:27:59;100504.75;;;12.74;67.63
76762;BME280;65705;51.032;13.790;2023-03-20T08:30:25;100510.19;;;12.65;67.96
76762;BME280;65705;51.032;13.790;2023-03-20T08:32:51;100512.50;;;12.60;68.45
76762;BME280;65705;51.032;13.790;2023-03-20T08:35:17;100512.63;;;12.50;68.24
76762;BME280;65705;51.032;13.790;2023-03-20T08:37:42;100512.47;;;12.52;68.68
76762;BME280;65705;51.032;13.790;2023-03-20T08:40:09;100515.63;;;12.63;68.19
76762;BME280;65705;51.032;13.790;2023-03-20T08:42:36;100507.75;;;12.80;67.64
76762;BME280;65705;51.032;13.790;2023-03-20T08:45:01;100508.38;;;12.65;67.83
76762;BME280;65705;51.032;13.790;2023-03-20T08:47:27;100514.00;;;12.70;68.05
76762;BME280;65705;51.032;13.790;2023-03-20T08:49:53;100520.06;;;12.71;67.78
76762;BME280;65705;51.032;13.790;2023-03-20T08:52:20;100520.75;;;12.81;67.70
76762;BME280;65705;51.032;13.790;2023-03-20T08:54:45;100516.00;;;12.85;67.95
76762;BME280;65705;51.032;13.790;2023-03-20T08:57:11;100516.31;;;12.90;67.81
76762;BME280;65705;51.032;13.790;2023-03-20T08:59:37;100517.63;;;13.02;67.42
76762;BME280;65705;51.032;13.790;2023-03-20T09:02:03;100524.09;;;13.31;66.33
76762;BME280;65705;51.032;13.790;2023-03-20T09:04:29;100531.81;;;13.41;66.01
76762;BME280;65705;51.032;13.790;2023-03-20T09:06:55;100518.94;;;13.54;65.73
76762;BME280;65705;51.032;13.790;2023-03-20T09:09:21;100524.88;;;13.56;65.83
76762;BME280;65705;51.032;13.790;2023-03-20T09:11:55;100522.41;;;13.46;65.93
76762;BME280;65705;51.032;13.790;2023-03-20T09:14:22;100516.50;;;13.36;66.38
76762;BME280;65705;51.032;13.790;2023-03-20T09:16:48;100512.69;;;13.47;66.33
76762;BME280;65705;51.032;13.790;2023-03-20T09:19:16;100526.72;;;13.39;66.60
76762;BME280;65705;51.032;13.790;2023-03-20T09:21:42;100525.72;;;13.56;66.34
76762;BME280;65705;51.032;13.790;2023-03-20T09:24:08;100525.69;;;13.64;66.05
76762;BME280;65705;51.032;13.790;2023-03-20T09:26:34;100527.00;;;13.77;66.00
76762;BME280;65705;51.032;13.790;2023-03-20T09:28:59;100529.47;;;13.70;65.68
76762;BME280;65705;51.032;13.790;2023-03-20T09:31:25;100528.28;;;13.81;65.17
76762;BME280;65705;51.032;13.790;2023-03-20T09:33:51;100523.00;;;13.81;65.36
76762;BME280;65705;51.032;13.790;2023-03-20T09:36:17;100521.69;;;13.85;65.41
76762;BME280;65705;51.032;13.790;2023-03-20T09:38:43;100525.16;;;13.77;65.23
76762;BME280;65705;51.032;13.790;2023-03-20T09:41:20;100531.44;;;13.76;65.42
76762;BME280;65705;51.032;13.790;2023-03-20T09:46:44;100526.59;;;13.96;65.20
76762;BME280;65705;51.032;13.790;2023-03-20T09:52:09;100540.28;;;13.99;64.86
76762;BME280;65705;51.032;13.790;2023-03-20T09:54:43;100541.91;;;14.00;65.20
76762;BME280;65705;51.032;13.790;2023-03-20T09:57:21;100536.84;;;13.91;65.25
76762;BME280;65705;51.032;13.790;2023-03-20T09:59:56;100537.75;;;14.06;65.24
76762;BME280;65705;51.032;13.790;2023-03-20T10:05:02;100538.34;;;14.24;64.51
76762;BME280;65705;51.032;13.790;2023-03-20T10:07:30;100545.25;;;14.41;63.56
76762;BME280;65705;51.032;13.790;2023-03-20T10:09:55;100536.25;;;14.19;63.88
76762;BME280;65705;51.032;13.790;2023-03-20T10:12:36;100545.94;;;14.35;63.79
76762;BME280;65705;51.032;13.790;2023-03-20T10:21:07;100551.00;;;14.44;63.56
76762;BME280;65705;51.032;13.790;2023-03-20T10:26:11;100540.78;;;14.72;63.24
76762;BME280;65705;51.032;13.790;2023-03-20T10:36:49;100548.22;;;14.68;62.93
76762;BME280;65705;51.032;13.790;2023-03-20T10:42:01;100537.25;;;14.79;63.00
76762;BME280;65705;51.032;13.790;2023-03-20T10:44:35;100521.75;;;14.99;62.41
76762;BME280;65705;51.032;13.790;2023-03-20T10:47:06;100532.50;;;14.98;61.74
76762;BME280;65705;51.032;13.790;2023-03-20T10:49:40;100536.31;;;14.95;61.80
76762;BME280;65705;51.032;13.790;2023-03-20T10:52:21;100545.44;;;14.93;61.64
76762;BME280;65705;51.032;13.790;2023-03-20T10:54:55;100528.56;;;14.71;62.45
76762;BME280;65705;51.032;13.790;2023-03-20T10:57:24;100539.06;;;14.79;62.27
76762;BME280;65705;51.032;13.790;2023-03-20T10:59:55;100536.13;;;14.74;62.47
76762;BME280;65705;51.032;13.790;2023-03-20T11:02:26;100531.56;;;14.68;62.83
76762;BME280;65705;51.032;13.790;2023-03-20T11:04:52;100537.25;;;14.57;63.54
76762;BME280;65705;51.032;13.790;2023-03-20T11:07:25;100537.28;;;14.49;64.54
76762;BME280;65705;51.032;13.790;2023-03-20T11:17:40;100542.25;;;14.44;64.65
76762;BME280;65705;51.032;13.790;2023-03-20T11:20:06;100548.38;;;13.98;65.93
76762;BME280;65705;51.032;13.790;2023-03-20T11:22:33;100536.88;;;13.74;66.56
76762;BME280;65705;51.032;13.790;2023-03-20T11:25:01;100553.69;;;13.82;66.46
76762;BME280;65705;51.032;13.790;2023-03-20T11:27:30;100549.94;;;13.36;67.82
76762;BME280;65705;51.032;13.790;2023-03-20T11:29:59;100544.16;;;13.48;67.70
76762;BME280;65705;51.032;13.790;2023-03-20T11:32:35;100551.13;;;13.49;67.84
76762;BME280;65705;51.032;13.790;2023-03-20T11:35:21;100532.13;;;13.62;67.37
76762;BME280;65705;51.032;13.790;2023-03-20T11:37:52;100532.75;;;13.80;66.84
76762;BME280;65705;51.032;13.790;2023-03-20T11:40:28;100525.75;;;14.03;66.18
76762;BME280;65705;51.032;13.790;2023-03-20T11:45:33;100527.44;;;13.96;65.97
76762;BME280;65705;51.032;13.790;2023-03-20T11:48:00;100514.25;;;14.35;64.86
76762;BME280;65705;51.032;13.790;2023-03-20T11:52:52;100524.63;;;14.36;64.52
76762;BME280;65705;51.032;13.790;2023-03-20T11:55:28;100520.72;;;14.16;65.10
76762;BME280;65705;51.032;13.790;2023-03-20T11:57:59;100524.00;;;13.71;66.35
76762;BME280;65705;51.032;13.790;2023-03-20T12:00:34;100520.06;;;13.75;66.50
76762;BME280;65705;51.032;13.790;2023-03-20T12:03:02;100529.31;;;13.55;66.95
76762;BME280;65705;51.032;13.790;2023-03-20T12:05:34;100506.56;;;13.62;67.43
76762;BME280;65705;51.032;13.790;2023-03-20T12:08:10;100518.91;;;13.70;66.57
76762;BME280;65705;51.032;13.790;2023-03-20T12:10:40;100502.84;;;13.88;66.29
76762;BME280;65705;51.032;13.790;2023-03-20T12:15:43;100509.28;;;13.93;65.87
76762;BME280;65705;51.032;13.790;2023-03-20T12:18:35;100509.91;;;14.03;65.92
76762;BME280;65705;51.032;13.790;2023-03-20T12:21:11;100501.88;;;13.89;66.08
76762;BME280;65705;51.032;13.790;2023-03-20T12:24:10;100515.25;;;13.79;66.62
76762;BME280;65705;51.032;13.790;2023-03-20T12:26:38;100496.50;;;13.66;67.41
76762;BME280;65705;51.032;13.790;2023-03-20T12:31:42;100500.97;;;13.57;67.51
76762;BME280;65705;51.032;13.790;2023-03-20T12:34:31;100514.69;;;13.53;67.33
76762;BME280;65705;51.032;13.790;2023-03-20T12:36:58;100507.97;;;13.26;68.08
76762;BME280;65705;51.032;13.790;2023-03-20T12:39:34;100506.13;;;13.35;68.16
76762;BME280;65705;51.032;13.790;2023-03-20T12:44:55;100493.91;;;13.50;67.78
76762;BME280;65705;51.032;13.790;2023-03-20T13:10:36;100470.66;;;14.00;65.69
76762;BME280;65705;51.032;13.790;2023-03-20T13:18:46;100491.38;;;13.72;66.50
76762;BME280;65705;51.032;13.790;2023-03-20T13:21:40;100474.81;;;13.40;67.44
76762;BME280;65705;51.032;13.790;2023-03-20T13:24:08;100484.38;;;13.25;68.00
76762;BME280;65705;51.032;13.790;2023-03-20T13:29:20;100473.28;;;13.53;67.63
76762;BME280;65705;51.032;13.790;2023-03-20T13:34:49;100465.31;;;13.77;66.63
76762;BME280;65705;51.032;13.790;2023-03-20T13:37:26;100453.19;;;13.99;65.74
76762;BME280;65705;51.032;13.790;2023-03-20T13:42:51;100441.06;;;14.13;64.74
76762;BME280;65705;51.032;13.790;2023-03-20T13:47:52;100450.75;;;13.90;66.00
76762;BME280;65705;51.032;13.790;2023-03-20T13:50:32;100444.00;;;13.87;66.13
76762;BME280;65705;51.032;13.790;2023-03-20T13:53:27;100442.41;;;13.70;66.24
76762;BME280;65705;51.032;13.790;2023-03-20T13:58:54;100450.03;;;13.57;67.21
76762;BME280;65705;51.032;13.790;2023-03-20T14:04:19;100445.41;;;13.59;67.44
76762;BME280;65705;51.032;13.790;2023-03-20T14:06:51;100445.97;;;13.30;67.96
76762;BME280;65705;51.032;13.790;2023-03-20T14:09:34;100444.31;;;13.45;67.71
76762;BME280;65705;51.032;13.790;2023-03-20T14:12:05;100449.59;;;13.37;67.85
76762;BME280;65705;51.032;13.790;2023-03-20T14:14:45;100453.41;;;13.27;68.43
76762;BME280;65705;51.032;13.790;2023-03-20T14:17:25;100441.09;;;13.11;69.08
76762;BME280;65705;51.032;13.790;2023-03-20T14:19:52;100446.88;;;13.07;69.07
76762;BME280;65705;51.032;13.790;2023-03-20T14:22:26;100447.34;;;13.02;69.52
76762;BME280;65705;51.032;13.790;2023-03-20T14:24:59;100442.88;;;13.11;69.46
76762;BME280;65705;51.032;13.790;2023-03-20T14:27:32;100446.00;;;13.14;69.35
76762;BME280;65705;51.032;13.790;2023-03-20T14:32:59;100448.47;;;12.92;70.25
76762;BME280;65705;51.032;13.790;2023-03-20T14:35:26;100446.88;;;13.07;69.84
76762;BME280;65705;51.032;13.790;2023-03-20T14:40:48;100447.66;;;12.83;70.48
76762;BME280;65705;51.032;13.790;2023-03-20T14:46:04;100441.22;;;12.69;71.05
76762;BME280;65705;51.032;13.790;2023-03-20T14:48:39;100449.13;;;12.69;72.37
76762;BME280;65705;51.032;13.790;2023-03-20T14:51:51;100451.28;;;12.58;72.90
76762;BME280;65705;51.032;13.790;2023-03-20T14:54:26;100443.00;;;12.37;73.59
76762;BME280;65705;51.032;13.790;2023-03-20T14:56:52;100449.25;;;12.28;74.90
76762;BME280;65705;51.032;13.790;2023-03-20T14:59:22;100442.84;;;12.22;75.58
76762;BME280;65705;51.032;13.790;2023-03-20T15:04:38;100437.25;;;12.25;76.96
76762;BME280;65705;51.032;13.790;2023-03-20T15:09:37;100440.06;;;12.40;76.69
76762;BME280;65705;51.032;13.790;2023-03-20T15:12:05;100449.13;;;12.45;76.81
76762;BME280;65705;51.032;13.790;2023-03-20T15:14:44;100450.63;;;12.56;76.32
76762;BME280;65705;51.032;13.790;2023-03-20T15:17:18;100449.78;;;12.55;77.43
76762;BME280;65705;51.032;13.790;2023-03-20T15:19:45;100448.63;;;12.50;77.18
76762;BME280;65705;51.032;13.790;2023-03-20T15:22:14;100452.22;;;12.33;76.74
76762;BME280;65705;51.032;13.790;2023-03-20T15:24:41;100457.94;;;12.20;76.86